sensor_id;sensor_type;location;lat;lon;timestamp;P1;durP1;ratioP1;P2;durP2;ratioP2
57551;SDS011;43379;48.160;14.036;2022-07-10T00:00:36;5.00;;;4.50;;
57551;SDS011;43379;48.160;14.036;2022-07-10T00:03:03;4.03;;;3.73;;
57551;SDS011;43379;48.160;14.036;2022-07-10T00:05:30;4.47;;;4.13;;
57551;SDS011;43379;48.160;14.036;2022-07-10T00:07:56;4.20;;;3.87;;
57551;SDS011;43379;48.160;14.036;2022-07-10T00:10:22;6.33;;;4.70;;
57551;SDS011;43379;48.160;14.036;2022-07-10T00:12:49;6.20;;;4.37;;
57551;SDS011;43379;48.160;14.036;2022-07-10T00:15:16;5.47;;;4.87;;
57551;SDS011;43379;48.160;14.036;2022-07-10T00:17:42;4.47;;;4.17;;
57551;SDS011;43379;48.160;14.036;2022-07-10T00:20:09;4.80;;;4.50;;
57551;SDS011;43379;48.160;14.036;2022-07-10T00:22:36;5.00;;;4.60;;
57551;SDS011;43379;48.160;14.036;2022-07-10T00:25:03;4.20;;;3.90;;
57551;SDS011;43379;48.160;14.036;2022-07-10T00:27:30;5.27;;;4.93;;
57551;SDS011;43379;48.160;14.036;2022-07-10T00:29:55;5.10;;;4.70;;
57551;SDS011;43379;48.160;14.036;2022-07-10T00:32:21;5.03;;;4.50;;
57551;SDS011;43379;48.160;14.036;2022-07-10T00:34:47;5.40;;;4.90;;
57551;SDS011;43379;48.160;14.036;2022-07-10T00:37:13;6.37;;;5.23;;
57551;SDS011;43379;48.160;14.036;2022-07-10T00:39:38;5.03;;;4.63;;
57551;SDS011;43379;48.160;14.036;2022-07-10T00:44:34;4.70;;;4.40;;
57551;SDS011;43379;48.160;14.036;2022-07-10T00:47:00;5.63;;;4.80;;
57551;SDS011;43379;48.160;14.036;2022-07-10T00:49:27;4.50;;;4.10;;
57551;SDS011;43379;48.160;14.036;2022-07-10T00:51:53;4.77;;;4.37;;
57551;SDS011;43379;48.160;14.036;2022-07-10T00:54:19;5.40;;;4.80;;
57551;SDS011;43379;48.160;14.036;2022-07-10T00:56:45;4.43;;;4.03;;
57551;SDS011;43379;48.160;14.036;2022-07-10T00:59:11;4.70;;;4.30;;
57551;SDS011;43379;48.160;14.036;2022-07-10T01:01:37;4.90;;;4.50;;
57551;SDS011;43379;48.160;14.036;2022-07-10T01:04:04;6.00;;;5.13;;
57551;SDS011;43379;48.160;14.036;2022-07-10T01:06:29;4.90;;;4.50;;
57551;SDS011;43379;48.160;14.036;2022-07-10T01:08:55;5.23;;;4.80;;
57551;SDS011;43379;48.160;14.036;2022-07-10T01:11:21;4.67;;;4.27;;
57551;SDS011;43379;48.160;14.036;2022-07-10T01:13:47;4.57;;;4.27;;
57551;SDS011;43379;48.160;14.036;2022-07-10T01:16:12;5.03;;;4.67;;
57551;SDS011;43379;48.160;14.036;2022-07-10T01:18:38;4.97;;;4.47;;
57551;SDS011;43379;48.160;14.036;2022-07-10T01:21:04;6.93;;;4.23;;
57551;SDS011;43379;48.160;14.036;2022-07-10T01:23:30;5.20;;;4.70;;
57551;SDS011;43379;48.160;14.036;2022-07-10T01:25:56;4.50;;;4.10;;
57551;SDS011;43379;48.160;14.036;2022-07-10T01:28:22;4.67;;;4.27;;
57551;SDS011;43379;48.160;14.036;2022-07-10T01:30:48;5.23;;;4.73;;
57551;SDS011;43379;48.160;14.036;2022-07-10T01:33:14;5.80;;;4.80;;
57551;SDS011;43379;48.160;14.036;2022-07-10T01:35:40;4.37;;;3.97;;
57551;SDS011;43379;48.160;14.036;2022-07-10T01:38:06;5.40;;;4.57;;
57551;SDS011;43379;48.160;14.036;2022-07-10T01:40:32;4.77;;;4.37;;
57551;SDS011;43379;48.160;14.036;2022-07-10T01:42:58;4.50;;;4.20;;
57551;SDS011;43379;48.160;14.036;2022-07-10T01:45:23;4.50;;;4.20;;
57551;SDS011;43379;48.160;14.036;2022-07-10T01:47:50;4.90;;;4.60;;
57551;SDS011;43379;48.160;14.036;2022-07-10T01:50:15;4.10;;;3.80;;
57551;SDS011;43379;48.160;14.036;2022-07-10T01:52:41;5.07;;;4.10;;
57551;SDS011;43379;48.160;14.036;2022-07-10T01:55:07;4.43;;;4.10;;
57551;SDS011;43379;48.160;14.036;2022-07-10T01:57:34;6.73;;;4.50;;
57551;SDS011;43379;48.160;14.036;2022-07-10T02:00:00;6.33;;;4.30;;
57551;SDS011;43379;48.160;14.036;2022-07-10T02:02:25;4.60;;;4.30;;
57551;SDS011;43379;48.160;14.036;2022-07-10T02:04:51;4.70;;;4.30;;
57551;SDS011;43379;48.160;14.036;2022-07-10T02:07:17;5.93;;;4.87;;
57551;SDS011;43379;48.160;14.036;2022-07-10T02:09:46;4.63;;;4.23;;
57551;SDS011;43379;48.160;14.036;2022-07-10T02:12:13;4.10;;;3.80;;
57551;SDS011;43379;48.160;14.036;2022-07-10T02:14:40;5.03;;;4.63;;
57551;SDS011;43379;48.160;14.036;2022-07-10T02:17:07;4.63;;;4.33;;
57551;SDS011;43379;48.160;14.036;2022-07-10T02:19:33;4.23;;;3.93;;
57551;SDS011;43379;48.160;14.036;2022-07-10T02:22:00;4.63;;;4.20;;
57551;SDS011;43379;48.160;14.036;2022-07-10T02:24:26;4.30;;;3.90;;
57551;SDS011;43379;48.160;14.036;2022-07-10T02:26:52;4.50;;;4.20;;
57551;SDS011;43379;48.160;14.036;2022-07-10T02:29:20;4.23;;;3.83;;
57551;SDS011;43379;48.160;14.036;2022-07-10T02:34:21;4.60;;;4.30;;
57551;SDS011;43379;48.160;14.036;2022-07-10T02:36:47;4.53;;;4.20;;
57551;SDS011;43379;48.160;14.036;2022-07-10T02:39:13;5.13;;;4.27;;
57551;SDS011;43379;48.160;14.036;2022-07-10T02:41:38;4.60;;;4.20;;
57551;SDS011;43379;48.160;14.036;2022-07-10T02:44:06;4.10;;;3.80;;
57551;SDS011;43379;48.160;14.036;2022-07-10T02:46:31;4.53;;;4.13;;
57551;SDS011;43379;48.160;14.036;2022-07-10T02:48:57;4.80;;;4.40;;
57551;SDS011;43379;48.160;14.036;2022-07-10T02:51:23;5.03;;;4.63;;
57551;SDS011;43379;48.160;14.036;2022-07-10T02:53:48;5.07;;;4.57;;
57551;SDS011;43379;48.160;14.036;2022-07-10T02:56:14;4.73;;;4.37;;
57551;SDS011;43379;48.160;14.036;2022-07-10T02:58:40;4.67;;;4.20;;
57551;SDS011;43379;48.160;14.036;2022-07-10T03:01:05;5.07;;;4.50;;
57551;SDS011;43379;48.160;14.036;2022-07-10T03:03:31;4.23;;;3.93;;
57551;SDS011;43379;48.160;14.036;2022-07-10T03:05:58;4.77;;;4.30;;
57551;SDS011;43379;48.160;14.036;2022-07-10T03:08:24;4.97;;;4.60;;
57551;SDS011;43379;48.160;14.036;2022-07-10T03:10:50;4.13;;;3.83;;
57551;SDS011;43379;48.160;14.036;2022-07-10T03:13:15;4.90;;;4.50;;
57551;SDS011;43379;48.160;14.036;2022-07-10T03:15:41;5.10;;;4.70;;
57551;SDS011;43379;48.160;14.036;2022-07-10T03:18:06;5.20;;;4.70;;
57551;SDS011;43379;48.160;14.036;2022-07-10T03:20:32;4.97;;;4.43;;
57551;SDS011;43379;48.160;14.036;2022-07-10T03:22:58;5.40;;;5.00;;
57551;SDS011;43379;48.160;14.036;2022-07-10T03:25:24;5.17;;;4.70;;
57551;SDS011;43379;48.160;14.036;2022-07-10T03:27:49;5.60;;;4.50;;
57551;SDS011;43379;48.160;14.036;2022-07-10T03:30:15;5.17;;;3.90;;
57551;SDS011;43379;48.160;14.036;2022-07-10T03:32:41;4.17;;;3.87;;
57551;SDS011;43379;48.160;14.036;2022-07-10T03:35:06;4.97;;;4.57;;
57551;SDS011;43379;48.160;14.036;2022-07-10T03:37:32;4.63;;;4.33;;
57551;SDS011;43379;48.160;14.036;2022-07-10T03:39:58;5.37;;;4.93;;
57551;SDS011;43379;48.160;14.036;2022-07-10T03:42:24;4.60;;;4.30;;
57551;SDS011;43379;48.160;14.036;2022-07-10T03:44:49;4.97;;;4.53;;
57551;SDS011;43379;48.160;14.036;2022-07-10T03:47:15;6.60;;;5.20;;
57551;SDS011;43379;48.160;14.036;2022-07-10T03:49:41;5.00;;;4.23;;
57551;SDS011;43379;48.160;14.036;2022-07-10T03:52:07;5.23;;;4.30;;
57551;SDS011;43379;48.160;14.036;2022-07-10T03:54:33;5.50;;;4.43;;
57551;SDS011;43379;48.160;14.036;2022-07-10T03:56:58;5.10;;;4.63;;
57551;SDS011;43379;48.160;14.036;2022-07-10T03:59:43;5.23;;;4.80;;
57551;SDS011;43379;48.160;14.036;2022-07-10T04:02:09;5.63;;;5.13;;
57551;SDS011;43379;48.160;14.036;2022-07-10T04:04:34;5.20;;;4.20;;
57551;SDS011;43379;48.160;14.036;2022-07-10T04:07:00;4.80;;;4.40;;
57551;SDS011;43379;48.160;14.036;2022-07-10T04:09:26;6.40;;;4.70;;
57551;SDS011;43379;48.160;14.036;2022-07-10T04:11:52;6.30;;;5.10;;
57551;SDS011;43379;48.160;14.036;2022-07-10T04:14:17;4.73;;;4.43;;
57551;SDS011;43379;48.160;14.036;2022-07-10T04:16:43;4.77;;;4.47;;
57551;SDS011;43379;48.160;14.036;2022-07-10T04:19:09;5.00;;;4.53;;
57551;SDS011;43379;48.160;14.036;2022-07-10T04:21:35;5.00;;;4.50;;
57551;SDS011;43379;48.160;14.036;2022-07-10T04:24:02;5.40;;;4.90;;
57551;SDS011;43379;48.160;14.036;2022-07-10T04:26:28;5.33;;;4.93;;
57551;SDS011;43379;48.160;14.036;2022-07-10T04:28:53;5.60;;;4.67;;
57551;SDS011;43379;48.160;14.036;2022-07-10T04:31:19;5.50;;;4.50;;
57551;SDS011;43379;48.160;14.036;2022-07-10T04:33:45;6.00;;;4.90;;
57551;SDS011;43379;48.160;14.036;2022-07-10T04:36:10;5.23;;;4.83;;
57551;SDS011;43379;48.160;14.036;2022-07-10T04:38:36;5.03;;;4.63;;
57551;SDS011;43379;48.160;14.036;2022-07-10T04:41:02;5.37;;;4.87;;
57551;SDS011;43379;48.160;14.036;2022-07-10T04:43:29;6.50;;;5.03;;
57551;SDS011;43379;48.160;14.036;2022-07-10T04:45:55;5.73;;;5.13;;
57551;SDS011;43379;48.160;14.036;2022-07-10T04:48:21;5.43;;;4.87;;
57551;SDS011;43379;48.160;14.036;2022-07-10T04:50:47;5.77;;;4.77;;
57551;SDS011;43379;48.160;14.036;2022-07-10T04:53:12;4.97;;;4.47;;
57551;SDS011;43379;48.160;14.036;2022-07-10T04:55:38;5.30;;;4.90;;
57551;SDS011;43379;48.160;14.036;2022-07-10T04:58:04;5.47;;;5.03;;
57551;SDS011;43379;48.160;14.036;2022-07-10T05:00:29;5.70;;;4.77;;
57551;SDS011;43379;48.160;14.036;2022-07-10T05:02:55;5.73;;;5.27;;
57551;SDS011;43379;48.160;14.036;2022-07-10T05:05:21;5.33;;;4.93;;
57551;SDS011;43379;48.160;14.036;2022-07-10T05:07:46;6.03;;;5.53;;
57551;SDS011;43379;48.160;14.036;2022-07-10T05:10:12;5.53;;;5.00;;
57551;SDS011;43379;48.160;14.036;2022-07-10T05:12:39;5.90;;;5.33;;
57551;SDS011;43379;48.160;14.036;2022-07-10T05:15:05;5.17;;;4.67;;
57551;SDS011;43379;48.160;14.036;2022-07-10T05:17:31;5.97;;;5.57;;
57551;SDS011;43379;48.160;14.036;2022-07-10T05:19:57;5.50;;;5.17;;
57551;SDS011;43379;48.160;14.036;2022-07-10T05:22:23;5.83;;;5.10;;
57551;SDS011;43379;48.160;14.036;2022-07-10T05:24:49;5.80;;;5.30;;
57551;SDS011;43379;48.160;14.036;2022-07-10T05:27:15;5.30;;;4.90;;
57551;SDS011;43379;48.160;14.036;2022-07-10T05:29:45;5.27;;;4.83;;
57551;SDS011;43379;48.160;14.036;2022-07-10T05:32:11;5.57;;;5.03;;
57551;SDS011;43379;48.160;14.036;2022-07-10T05:34:37;6.43;;;5.67;;
57551;SDS011;43379;48.160;14.036;2022-07-10T05:37:03;5.50;;;5.10;;
57551;SDS011;43379;48.160;14.036;2022-07-10T05:39:30;5.97;;;5.47;;
57551;SDS011;43379;48.160;14.036;2022-07-10T05:41:55;6.37;;;5.90;;
57551;SDS011;43379;48.160;14.036;2022-07-10T05:44:22;7.73;;;5.40;;
57551;SDS011;43379;48.160;14.036;2022-07-10T05:46:48;10.63;;;6.30;;
57551;SDS011;43379;48.160;14.036;2022-07-10T05:49:14;6.50;;;6.00;;
57551;SDS011;43379;48.160;14.036;2022-07-10T05:51:40;6.23;;;5.73;;
57551;SDS011;43379;48.160;14.036;2022-07-10T05:54:05;6.67;;;6.27;;
57551;SDS011;43379;48.160;14.036;2022-07-10T05:56:31;7.10;;;6.40;;
57551;SDS011;43379;48.160;14.036;2022-07-10T05:58:57;7.20;;;6.60;;
57551;SDS011;43379;48.160;14.036;2022-07-10T06:01:23;6.90;;;6.40;;
57551;SDS011;43379;48.160;14.036;2022-07-10T06:03:49;7.13;;;6.47;;
57551;SDS011;43379;48.160;14.036;2022-07-10T06:06:15;6.73;;;6.13;;
57551;SDS011;43379;48.160;14.036;2022-07-10T06:08:41;7.30;;;6.73;;
57551;SDS011;43379;48.160;14.036;2022-07-10T06:11:10;7.03;;;6.33;;
57551;SDS011;43379;48.160;14.036;2022-07-10T06:13:36;7.67;;;6.77;;
57551;SDS011;43379;48.160;14.036;2022-07-10T06:16:02;7.20;;;6.60;;
57551;SDS011;43379;48.160;14.036;2022-07-10T06:18:29;7.10;;;6.70;;
57551;SDS011;43379;48.160;14.036;2022-07-10T06:20:55;7.40;;;6.87;;
57551;SDS011;43379;48.160;14.036;2022-07-10T06:23:21;7.10;;;6.57;;
57551;SDS011;43379;48.160;14.036;2022-07-10T06:25:47;8.20;;;7.60;;
57551;SDS011;43379;48.160;14.036;2022-07-10T06:28:14;8.20;;;7.13;;
57551;SDS011;43379;48.160;14.036;2022-07-10T06:30:43;7.17;;;6.67;;
57551;SDS011;43379;48.160;14.036;2022-07-10T06:33:11;6.97;;;6.33;;
57551;SDS011;43379;48.160;14.036;2022-07-10T06:35:37;7.07;;;6.47;;
57551;SDS011;43379;48.160;14.036;2022-07-10T06:38:02;7.97;;;7.47;;
57551;SDS011;43379;48.160;14.036;2022-07-10T06:40:29;7.73;;;7.17;;
57551;SDS011;43379;48.160;14.036;2022-07-10T06:42:55;7.10;;;6.50;;
57551;SDS011;43379;48.160;14.036;2022-07-10T06:45:20;6.73;;;6.23;;
57551;SDS011;43379;48.160;14.036;2022-07-10T06:47:46;7.70;;;7.00;;
57551;SDS011;43379;48.160;14.036;2022-07-10T06:50:22;7.00;;;6.60;;
57551;SDS011;43379;48.160;14.036;2022-07-10T06:52:55;6.53;;;6.03;;
57551;SDS011;43379;48.160;14.036;2022-07-10T06:55:21;6.60;;;6.13;;
57551;SDS011;43379;48.160;14.036;2022-07-10T06:57:48;6.57;;;6.17;;
57551;SDS011;43379;48.160;14.036;2022-07-10T07:00:14;6.43;;;5.93;;
57551;SDS011;43379;48.160;14.036;2022-07-10T07:02:41;7.50;;;6.83;;
57551;SDS011;43379;48.160;14.036;2022-07-10T07:05:07;5.93;;;5.43;;
57551;SDS011;43379;48.160;14.036;2022-07-10T07:07:33;6.37;;;5.77;;
57551;SDS011;43379;48.160;14.036;2022-07-10T07:09:59;6.40;;;5.80;;
57551;SDS011;43379;48.160;14.036;2022-07-10T07:12:25;6.10;;;4.77;;
57551;SDS011;43379;48.160;14.036;2022-07-10T07:14:51;5.63;;;5.23;;
57551;SDS011;43379;48.160;14.036;2022-07-10T07:17:17;5.70;;;5.30;;
57551;SDS011;43379;48.160;14.036;2022-07-10T07:19:59;5.90;;;5.30;;
57551;SDS011;43379;48.160;14.036;2022-07-10T07:22:43;4.90;;;4.50;;
57551;SDS011;43379;48.160;14.036;2022-07-10T07:25:28;5.60;;;5.20;;
57551;SDS011;43379;48.160;14.036;2022-07-10T07:27:54;6.50;;;6.00;;
57551;SDS011;43379;48.160;14.036;2022-07-10T07:30:19;4.90;;;4.50;;
57551;SDS011;43379;48.160;14.036;2022-07-10T07:32:45;5.43;;;4.90;;
57551;SDS011;43379;48.160;14.036;2022-07-10T07:35:13;5.40;;;5.00;;
57551;SDS011;43379;48.160;14.036;2022-07-10T07:37:40;5.93;;;5.53;;
57551;SDS011;43379;48.160;14.036;2022-07-10T07:40:07;5.37;;;4.97;;
57551;SDS011;43379;48.160;14.036;2022-07-10T07:42:36;5.23;;;4.83;;
57551;SDS011;43379;48.160;14.036;2022-07-10T07:45:02;4.97;;;4.50;;
57551;SDS011;43379;48.160;14.036;2022-07-10T07:47:29;5.90;;;5.40;;
57551;SDS011;43379;48.160;14.036;2022-07-10T07:50:16;5.87;;;5.20;;
57551;SDS011;43379;48.160;14.036;2022-07-10T07:52:43;5.60;;;5.23;;
57551;SDS011;43379;48.160;14.036;2022-07-10T07:55:10;5.13;;;4.73;;
57551;SDS011;43379;48.160;14.036;2022-07-10T07:57:37;5.60;;;5.07;;
57551;SDS011;43379;48.160;14.036;2022-07-10T08:00:07;5.63;;;5.13;;
57551;SDS011;43379;48.160;14.036;2022-07-10T08:02:34;5.70;;;5.07;;
57551;SDS011;43379;48.160;14.036;2022-07-10T08:05:00;5.30;;;4.90;;
57551;SDS011;43379;48.160;14.036;2022-07-10T08:07:39;5.03;;;4.63;;
57551;SDS011;43379;48.160;14.036;2022-07-10T08:10:08;4.53;;;4.23;;
57551;SDS011;43379;48.160;14.036;2022-07-10T08:12:35;4.77;;;4.37;;
57551;SDS011;43379;48.160;14.036;2022-07-10T08:15:01;6.23;;;5.73;;
57551;SDS011;43379;48.160;14.036;2022-07-10T08:17:29;5.90;;;4.70;;
57551;SDS011;43379;48.160;14.036;2022-07-10T08:19:55;4.93;;;4.63;;
57551;SDS011;43379;48.160;14.036;2022-07-10T08:22:20;5.10;;;4.70;;
57551;SDS011;43379;48.160;14.036;2022-07-10T08:24:46;5.30;;;4.80;;
57551;SDS011;43379;48.160;14.036;2022-07-10T08:27:12;4.87;;;4.43;;
57551;SDS011;43379;48.160;14.036;2022-07-10T08:29:38;4.83;;;4.20;;
57551;SDS011;43379;48.160;14.036;2022-07-10T08:32:04;5.10;;;4.53;;
57551;SDS011;43379;48.160;14.036;2022-07-10T08:34:30;4.77;;;4.47;;
57551;SDS011;43379;48.160;14.036;2022-07-10T08:36:58;4.50;;;4.20;;
57551;SDS011;43379;48.160;14.036;2022-07-10T08:39:23;4.60;;;4.30;;
57551;SDS011;43379;48.160;14.036;2022-07-10T08:41:49;4.27;;;3.97;;
57551;SDS011;43379;48.160;14.036;2022-07-10T08:44:18;5.33;;;4.93;;
57551;SDS011;43379;48.160;14.036;2022-07-10T08:46:44;7.37;;;4.43;;
57551;SDS011;43379;48.160;14.036;2022-07-10T08:49:11;4.50;;;4.20;;
57551;SDS011;43379;48.160;14.036;2022-07-10T08:51:45;4.67;;;4.37;;
57551;SDS011;43379;48.160;14.036;2022-07-10T08:54:18;4.60;;;4.07;;
57551;SDS011;43379;48.160;14.036;2022-07-10T08:56:45;5.73;;;4.93;;
57551;SDS011;43379;48.160;14.036;2022-07-10T08:59:12;5.47;;;5.17;;
57551;SDS011;43379;48.160;14.036;2022-07-10T09:01:39;4.90;;;4.50;;
57551;SDS011;43379;48.160;14.036;2022-07-10T09:04:06;4.67;;;4.37;;
57551;SDS011;43379;48.160;14.036;2022-07-10T09:06:31;5.30;;;4.90;;
57551;SDS011;43379;48.160;14.036;2022-07-10T09:09:04;6.20;;;5.63;;
57551;SDS011;43379;48.160;14.036;2022-07-10T09:11:32;5.00;;;4.60;;
57551;SDS011;43379;48.160;14.036;2022-07-10T09:14:02;5.60;;;5.20;;
57551;SDS011;43379;48.160;14.036;2022-07-10T09:16:30;5.80;;;5.37;;
57551;SDS011;43379;48.160;14.036;2022-07-10T09:18:58;6.73;;;5.10;;
57551;SDS011;43379;48.160;14.036;2022-07-10T09:22:03;5.60;;;5.13;;
57551;SDS011;43379;48.160;14.036;2022-07-10T09:24:37;4.37;;;4.10;;
57551;SDS011;43379;48.160;14.036;2022-07-10T09:27:05;4.17;;;3.83;;
57551;SDS011;43379;48.160;14.036;2022-07-10T09:29:32;3.43;;;3.23;;
57551;SDS011;43379;48.160;14.036;2022-07-10T09:31:59;3.60;;;3.30;;
57551;SDS011;43379;48.160;14.036;2022-07-10T09:37:18;3.70;;;3.40;;
57551;SDS011;43379;48.160;14.036;2022-07-10T09:40:00;3.90;;;3.60;;
57551;SDS011;43379;48.160;14.036;2022-07-10T09:42:36;3.53;;;3.23;;
57551;SDS011;43379;48.160;14.036;2022-07-10T09:47:37;3.50;;;3.30;;
57551;SDS011;43379;48.160;14.036;2022-07-10T09:53:02;2.93;;;2.67;;
57551;SDS011;43379;48.160;14.036;2022-07-10T09:55:35;3.03;;;2.73;;
57551;SDS011;43379;48.160;14.036;2022-07-10T09:58:05;3.07;;;2.87;;
57551;SDS011;43379;48.160;14.036;2022-07-10T10:00:37;3.87;;;2.80;;
57551;SDS011;43379;48.160;14.036;2022-07-10T10:03:04;4.83;;;2.97;;
57551;SDS011;43379;48.160;14.036;2022-07-10T10:05:44;4.73;;;2.80;;
57551;SDS011;43379;48.160;14.036;2022-07-10T10:08:19;3.03;;;2.70;;
57551;SDS011;43379;48.160;14.036;2022-07-10T10:10:45;2.47;;;2.27;;
57551;SDS011;43379;48.160;14.036;2022-07-10T10:13:20;2.03;;;1.93;;
57551;SDS011;43379;48.160;14.036;2022-07-10T10:15:47;2.80;;;2.50;;
57551;SDS011;43379;48.160;14.036;2022-07-10T10:18:15;2.50;;;2.30;;
57551;SDS011;43379;48.160;14.036;2022-07-10T10:20:44;3.40;;;2.57;;
57551;SDS011;43379;48.160;14.036;2022-07-10T10:23:24;2.60;;;2.40;;
57551;SDS011;43379;48.160;14.036;2022-07-10T10:25:53;2.90;;;2.43;;
57551;SDS011;43379;48.160;14.036;2022-07-10T10:28:20;2.80;;;2.40;;
57551;SDS011;43379;48.160;14.036;2022-07-10T10:30:48;2.43;;;2.20;;
57551;SDS011;43379;48.160;14.036;2022-07-10T10:36:01;2.90;;;2.37;;
57551;SDS011;43379;48.160;14.036;2022-07-10T10:41:36;2.93;;;2.00;;
57551;SDS011;43379;48.160;14.036;2022-07-10T10:46:32;2.73;;;2.33;;
57551;SDS011;43379;48.160;14.036;2022-07-10T10:49:19;4.00;;;2.37;;
57551;SDS011;43379;48.160;14.036;2022-07-10T10:52:04;6.17;;;2.23;;
57551;SDS011;43379;48.160;14.036;2022-07-10T11:00:05;2.77;;;2.40;;
57551;SDS011;43379;48.160;14.036;2022-07-10T11:02:35;2.50;;;2.00;;
57551;SDS011;43379;48.160;14.036;2022-07-10T11:07:52;4.20;;;2.27;;
57551;SDS011;43379;48.160;14.036;2022-07-10T11:15:45;3.40;;;2.20;;
57551;SDS011;43379;48.160;14.036;2022-07-10T11:18:20;2.60;;;1.77;;
57551;SDS011;43379;48.160;14.036;2022-07-10T11:20:54;2.50;;;1.77;;
57551;SDS011;43379;48.160;14.036;2022-07-10T11:23:27;4.17;;;2.60;;
57551;SDS011;43379;48.160;14.036;2022-07-10T11:26:58;2.97;;;1.97;;
57551;SDS011;43379;48.160;14.036;2022-07-10T11:29:05;3.30;;;2.77;;
57551;SDS011;43379;48.160;14.036;2022-07-10T11:31:31;4.60;;;2.90;;
57551;SDS011;43379;48.160;14.036;2022-07-10T11:34:04;5.17;;;2.47;;
57551;SDS011;43379;48.160;14.036;2022-07-10T11:36:30;3.47;;;1.80;;
57551;SDS011;43379;48.160;14.036;2022-07-10T11:38:59;2.70;;;2.37;;
57551;SDS011;43379;48.160;14.036;2022-07-10T11:41:27;3.90;;;2.53;;
57551;SDS011;43379;48.160;14.036;2022-07-10T11:46:21;4.10;;;1.70;;
57551;SDS011;43379;48.160;14.036;2022-07-10T11:48:49;2.53;;;1.97;;
57551;SDS011;43379;48.160;14.036;2022-07-10T11:51:25;2.20;;;2.00;;
57551;SDS011;43379;48.160;14.036;2022-07-10T11:54:14;3.83;;;2.07;;
57551;SDS011;43379;48.160;14.036;2022-07-10T11:56:41;2.87;;;1.90;;
57551;SDS011;43379;48.160;14.036;2022-07-10T11:59:12;2.10;;;1.90;;
57551;SDS011;43379;48.160;14.036;2022-07-10T12:01:42;2.37;;;2.00;;
57551;SDS011;43379;48.160;14.036;2022-07-10T12:04:13;4.50;;;2.20;;
57551;SDS011;43379;48.160;14.036;2022-07-10T12:06:42;2.00;;;1.90;;
57551;SDS011;43379;48.160;14.036;2022-07-10T12:09:10;3.07;;;1.97;;
57551;SDS011;43379;48.160;14.036;2022-07-10T12:11:38;3.60;;;2.10;;
57551;SDS011;43379;48.160;14.036;2022-07-10T12:14:16;5.30;;;2.17;;
57551;SDS011;43379;48.160;14.036;2022-07-10T12:16:44;3.37;;;1.80;;
57551;SDS011;43379;48.160;14.036;2022-07-10T12:19:18;4.20;;;1.90;;
57551;SDS011;43379;48.160;14.036;2022-07-10T12:21:45;3.27;;;1.80;;
57551;SDS011;43379;48.160;14.036;2022-07-10T12:24:13;3.93;;;2.10;;
57551;SDS011;43379;48.160;14.036;2022-07-10T12:26:43;2.03;;;1.83;;
57551;SDS011;43379;48.160;14.036;2022-07-10T12:29:27;3.73;;;1.87;;
57551;SDS011;43379;48.160;14.036;2022-07-10T12:31:55;4.20;;;1.80;;
57551;SDS011;43379;48.160;14.036;2022-07-10T12:34:35;3.57;;;2.10;;
57551;SDS011;43379;48.160;14.036;2022-07-10T12:37:09;1.87;;;1.77;;
57551;SDS011;43379;48.160;14.036;2022-07-10T12:39:37;1.67;;;1.40;;
57551;SDS011;43379;48.160;14.036;2022-07-10T12:42:23;2.50;;;2.07;;
57551;SDS011;43379;48.160;14.036;2022-07-10T12:44:53;4.97;;;2.00;;
57551;SDS011;43379;48.160;14.036;2022-07-10T12:47:20;6.77;;;1.80;;
57551;SDS011;43379;48.160;14.036;2022-07-10T12:52:32;2.63;;;1.30;;
57551;SDS011;43379;48.160;14.036;2022-07-10T12:55:34;2.50;;;1.80;;
57551;SDS011;43379;48.160;14.036;2022-07-10T12:58:03;4.13;;;1.80;;
57551;SDS011;43379;48.160;14.036;2022-07-10T13:00:32;2.57;;;1.70;;
57551;SDS011;43379;48.160;14.036;2022-07-10T13:03:00;2.50;;;1.53;;
57551;SDS011;43379;48.160;14.036;2022-07-10T13:10:45;2.57;;;1.50;;
57551;SDS011;43379;48.160;14.036;2022-07-10T13:13:15;2.70;;;1.63;;
57551;SDS011;43379;48.160;14.036;2022-07-10T13:15:42;1.57;;;1.33;;
57551;SDS011;43379;48.160;14.036;2022-07-10T13:18:18;2.60;;;1.20;;
57551;SDS011;43379;48.160;14.036;2022-07-10T13:20:46;2.53;;;1.30;;
57551;SDS011;43379;48.160;14.036;2022-07-10T13:23:14;3.00;;;1.80;;
57551;SDS011;43379;48.160;14.036;2022-07-10T13:25:40;5.43;;;1.80;;
57551;SDS011;43379;48.160;14.036;2022-07-10T13:28:06;2.60;;;1.40;;
57551;SDS011;43379;48.160;14.036;2022-07-10T13:30:34;2.00;;;1.40;;
57551;SDS011;43379;48.160;14.036;2022-07-10T13:33:00;1.90;;;1.67;;
57551;SDS011;43379;48.160;14.036;2022-07-10T13:35:29;2.57;;;1.50;;
57551;SDS011;43379;48.160;14.036;2022-07-10T13:37:57;2.37;;;1.30;;
57551;SDS011;43379;48.160;14.036;2022-07-10T13:40:29;1.60;;;1.40;;
57551;SDS011;43379;48.160;14.036;2022-07-10T13:42:56;2.07;;;1.37;;
57551;SDS011;43379;48.160;14.036;2022-07-10T13:45:23;2.50;;;1.60;;
57551;SDS011;43379;48.160;14.036;2022-07-10T13:47:51;3.60;;;1.50;;
57551;SDS011;43379;48.160;14.036;2022-07-10T13:50:19;5.00;;;2.10;;
57551;SDS011;43379;48.160;14.036;2022-07-10T13:52:46;1.70;;;1.40;;
57551;SDS011;43379;48.160;14.036;2022-07-10T13:55:11;2.80;;;1.93;;
57551;SDS011;43379;48.160;14.036;2022-07-10T13:57:37;2.80;;;1.50;;
57551;SDS011;43379;48.160;14.036;2022-07-10T14:00:04;5.83;;;1.67;;
57551;SDS011;43379;48.160;14.036;2022-07-10T14:02:31;1.70;;;1.50;;
57551;SDS011;43379;48.160;14.036;2022-07-10T14:04:57;2.20;;;1.50;;
57551;SDS011;43379;48.160;14.036;2022-07-10T14:07:23;7.30;;;1.40;;
57551;SDS011;43379;48.160;14.036;2022-07-10T14:09:49;2.50;;;1.37;;
57551;SDS011;43379;48.160;14.036;2022-07-10T14:12:15;2.27;;;1.33;;
57551;SDS011;43379;48.160;14.036;2022-07-10T14:14:41;3.20;;;1.53;;
57551;SDS011;43379;48.160;14.036;2022-07-10T14:17:07;4.17;;;2.13;;
57551;SDS011;43379;48.160;14.036;2022-07-10T14:19:33;2.13;;;1.57;;
57551;SDS011;43379;48.160;14.036;2022-07-10T14:21:58;1.67;;;1.40;;
57551;SDS011;43379;48.160;14.036;2022-07-10T14:24:24;3.03;;;1.30;;
57551;SDS011;43379;48.160;14.036;2022-07-10T14:26:50;3.13;;;1.17;;
57551;SDS011;43379;48.160;14.036;2022-07-10T14:29:18;1.57;;;1.40;;
57551;SDS011;43379;48.160;14.036;2022-07-10T14:31:44;3.33;;;1.37;;
57551;SDS011;43379;48.160;14.036;2022-07-10T14:34:12;2.03;;;1.57;;
57551;SDS011;43379;48.160;14.036;2022-07-10T14:36:38;3.33;;;1.33;;
57551;SDS011;43379;48.160;14.036;2022-07-10T14:39:04;1.83;;;1.13;;
57551;SDS011;43379;48.160;14.036;2022-07-10T14:41:30;2.70;;;1.83;;
57551;SDS011;43379;48.160;14.036;2022-07-10T14:43:56;1.67;;;1.30;;
57551;SDS011;43379;48.160;14.036;2022-07-10T14:46:21;2.07;;;1.30;;
57551;SDS011;43379;48.160;14.036;2022-07-10T14:48:47;2.90;;;1.50;;
57551;SDS011;43379;48.160;14.036;2022-07-10T14:51:13;2.93;;;1.67;;
57551;SDS011;43379;48.160;14.036;2022-07-10T14:53:39;1.43;;;1.20;;
57551;SDS011;43379;48.160;14.036;2022-07-10T14:56:06;1.60;;;1.40;;
57551;SDS011;43379;48.160;14.036;2022-07-10T14:58:33;2.30;;;1.37;;
57551;SDS011;43379;48.160;14.036;2022-07-10T15:00:59;2.30;;;1.47;;
57551;SDS011;43379;48.160;14.036;2022-07-10T15:03:25;4.57;;;1.60;;
57551;SDS011;43379;48.160;14.036;2022-07-10T15:05:51;1.00;;;0.90;;
57551;SDS011;43379;48.160;14.036;2022-07-10T15:08:25;2.03;;;1.30;;
57551;SDS011;43379;48.160;14.036;2022-07-10T15:10:51;4.00;;;1.20;;
57551;SDS011;43379;48.160;14.036;2022-07-10T15:13:17;4.93;;;1.30;;
57551;SDS011;43379;48.160;14.036;2022-07-10T15:15:43;2.27;;;1.60;;
57551;SDS011;43379;48.160;14.036;2022-07-10T15:18:09;3.63;;;1.23;;
57551;SDS011;43379;48.160;14.036;2022-07-10T15:20:35;2.00;;;1.20;;
57551;SDS011;43379;48.160;14.036;2022-07-10T15:23:02;1.97;;;1.13;;